Skip to main content

CRUISE INFORMATION RECORD AND DATA
 
NODC Cruise 09-9507 Information
WOD CRUISE REFERENCE # 09009507
DATA:
in WOD format 09009507_XBT.dat
09009507_CTD.dat
in 'csv' format 09009507_XBT.csv
09009507_CTD.csv
METADATA:
COUNTRY AUSTRALIA (09)
NODC ACCESSION NUMBER (XBT) 44420
SHIP NAME AURORA AUSTRALIS
ORIGINATORS CRUISE CODE (XBT) V6-SR3
DATE OF FIRST CAST 3/23/2008
DATE OF LAST CAST 4/15/2008
TOTAL NUMBER OF CASTS 132
Temperature [t] PROFILES 132
Salinity [s] PROFILES 73
Oxygen [o] PROFILES 68
Pressure [w] PROFILES 73
UNIQUE CAST # LATITUDE LONGITUDE DATE TIME PROBE TYPE
11462484 -50.197 145.394 3/23/2008 23.613 CTD
11462485 -54.401 143.815 3/25/2008 0.841 CTD
11462486 -57.507 142.840 3/25/2008 22.631 CTD
11462487 -65.803 139.680 3/28/2008 21.580 CTD
11462488 -65.574 139.654 3/29/2008 2.938 CTD
11462489 -65.522 139.860 3/29/2008 6.260 CTD
11462490 -65.425 139.837 3/29/2008 10.363 CTD
11462491 -65.397 139.914 3/29/2008 16.422 CTD
11462492 -65.071 139.748 3/29/2008 22.412 CTD
11462493 -64.811 139.858 3/30/2008 3.024 CTD
11462494 -64.878 140.205 3/30/2008 8.925 CTD
11462495 -64.550 139.838 3/30/2008 15.153 CTD
11462496 -64.209 139.838 3/30/2008 20.814 CTD
11462497 -64.209 139.844 3/31/2008 0.576 CTD
11462498 -63.864 139.855 3/31/2008 6.343 CTD
11462425 -63.350 139.830 3/31/2008 11.933 XBT
11462426 -63.350 139.830 3/31/2008 12.017 XBT
11462427 -63.350 139.830 3/31/2008 12.100 XBT
11462428 -63.350 139.830 3/31/2008 12.200 XBT
11462429 -63.350 139.830 3/31/2008 12.283 XBT
11462430 -63.350 139.830 3/31/2008 12.350 XBT
11462499 -63.349 139.835 3/31/2008 12.887 CTD
11462500 -62.854 139.855 3/31/2008 19.148 CTD
11462501 -62.369 139.842 4/1/2008 2.057 CTD
11462502 -61.863 139.837 4/1/2008 8.764 CTD
11462503 -61.355 139.836 4/1/2008 17.532 CTD
11462431 -60.850 139.850 4/1/2008 23.383 XBT
11462432 -60.850 139.850 4/1/2008 23.483 XBT
11462433 -60.850 139.850 4/1/2008 23.567 XBT
11462434 -60.850 139.850 4/1/2008 23.667 XBT
11462435 -60.850 139.850 4/1/2008 23.767 XBT
11462436 -60.850 139.850 4/1/2008 23.833 XBT
11462504 -60.853 139.850 4/2/2008 0.502 CTD
11462505 -60.853 139.849 4/2/2008 5.429 CTD
11462506 -60.348 139.845 4/2/2008 13.216 CTD
11462507 -59.848 139.860 4/2/2008 20.040 CTD
11462437 -59.350 139.850 4/3/2008 1.983 XBT
11462438 -59.350 139.850 4/3/2008 2.067 XBT
11462439 -59.350 139.850 4/3/2008 2.183 XBT
11462440 -59.350 139.850 4/3/2008 2.300 XBT
11462441 -59.350 139.850 4/3/2008 2.383 XBT
11462442 -59.350 139.850 4/3/2008 2.450 XBT
11462443 -59.350 139.850 4/3/2008 2.550 XBT
11462444 -59.350 139.850 4/3/2008 2.633 XBT
11462445 -59.350 139.850 4/3/2008 2.783 XBT
11462508 -59.346 139.852 4/3/2008 3.081 CTD
11462509 -58.844 139.850 4/3/2008 8.908 CTD
11462510 -58.849 139.844 4/3/2008 12.490 CTD
11462511 -58.350 139.864 4/3/2008 19.741 CTD
11462512 -57.849 139.852 4/4/2008 1.374 CTD
11462446 -57.350 139.870 4/4/2008 7.133 XBT
11462447 -57.350 139.870 4/4/2008 7.250 XBT
11462448 -57.350 139.870 4/4/2008 7.350 XBT
11462449 -57.350 139.870 4/4/2008 7.417 XBT
11462450 -57.350 139.870 4/4/2008 7.517 XBT
11462451 -57.350 139.870 4/4/2008 7.583 XBT
11462452 -57.350 139.870 4/4/2008 7.667 XBT
11462453 -57.350 139.870 4/4/2008 7.750 XBT
11462454 -57.350 139.870 4/4/2008 7.850 XBT
11462513 -57.348 139.888 4/4/2008 8.722 CTD
11462514 -56.929 139.849 4/4/2008 14.199 CTD
11462515 -56.926 139.846 4/4/2008 17.704 CTD
11462516 -56.423 140.094 4/5/2008 2.564 CTD
11462517 -55.924 140.409 4/5/2008 8.946 CTD
11462518 -55.502 140.743 4/5/2008 17.179 CTD
11462519 -55.016 141.026 4/5/2008 23.712 CTD
11462455 -54.530 141.330 4/6/2008 8.583 XBT
11462456 -54.530 141.330 4/6/2008 8.650 XBT
11462457 -54.530 141.330 4/6/2008 8.733 XBT
11462458 -54.530 141.330 4/6/2008 8.800 XBT
11462459 -54.530 141.330 4/6/2008 8.883 XBT
11462460 -54.530 141.330 4/6/2008 8.967 XBT
11462520 -54.523 141.339 4/6/2008 9.836 CTD
11462521 -54.070 141.609 4/6/2008 16.406 CTD
11462522 -54.068 141.611 4/6/2008 19.331 CTD
11462523 -53.589 141.866 4/7/2008 1.182 CTD
11462524 -53.139 142.147 4/7/2008 7.236 CTD
11462525 -52.678 142.396 4/7/2008 14.841 CTD
11462526 -52.674 142.389 4/7/2008 17.763 CTD
11462527 -52.374 142.546 4/7/2008 21.797 CTD
11462461 -52.080 142.720 4/8/2008 2.567 XBT
11462462 -52.080 142.720 4/8/2008 2.683 XBT
11462463 -52.080 142.720 4/8/2008 2.767 XBT
11462464 -52.080 142.720 4/8/2008 2.833 XBT
11462465 -52.080 142.720 4/8/2008 2.883 XBT
11462466 -52.080 142.720 4/8/2008 3.000 XBT
11462528 -52.084 142.725 4/8/2008 3.710 CTD
11462529 -51.813 142.856 4/9/2008 17.236 CTD
11462530 -51.540 143.013 4/9/2008 21.716 CTD
11462531 -51.539 143.007 4/10/2008 1.152 CTD
11462532 -51.257 143.156 4/10/2008 6.886 CTD
11462533 -51.000 143.308 4/10/2008 11.964 CTD
11462534 -50.673 143.437 4/10/2008 17.039 CTD
11462467 -50.400 143.530 4/10/2008 21.567 XBT
11462468 -50.400 143.530 4/10/2008 21.617 XBT
11462469 -50.400 143.530 4/10/2008 21.700 XBT
11462470 -50.400 143.530 4/10/2008 21.833 XBT
11462535 -50.389 143.539 4/10/2008 22.757 CTD
11462536 -50.153 143.663 4/11/2008 4.333 CTD
11462537 -49.885 143.809 4/11/2008 9.738 CTD
11462538 -49.606 143.931 4/11/2008 15.874 CTD
11462539 -49.269 144.101 4/11/2008 21.094 CTD
11462540 -49.267 144.101 4/12/2008 0.614 CTD
11462471 -48.780 144.320 4/12/2008 5.550 XBT
11462472 -48.780 144.320 4/12/2008 5.617 XBT
11462473 -48.780 144.320 4/12/2008 5.700 XBT
11462474 -48.780 144.320 4/12/2008 5.783 XBT
11462475 -48.780 144.320 4/12/2008 5.867 XBT
11462476 -48.780 144.320 4/12/2008 5.950 XBT
11462477 -48.780 144.320 4/12/2008 6.067 XBT
11462478 -48.780 144.320 4/12/2008 6.167 XBT
11462479 -48.780 144.320 4/12/2008 6.283 XBT
11462480 -48.780 144.320 4/12/2008 6.367 XBT
11462481 -48.780 144.320 4/12/2008 6.433 XBT
11462482 -48.780 144.320 4/12/2008 6.517 XBT
11462483 -48.780 144.320 4/12/2008 6.600 XBT
11462541 -48.774 144.310 4/12/2008 6.856 CTD
11462542 -48.326 144.545 4/12/2008 12.738 CTD
11462543 -47.999 144.686 4/12/2008 19.839 CTD
11462544 -48.000 144.672 4/12/2008 23.048 CTD
11462545 -47.463 144.902 4/13/2008 4.701 CTD
11462546 -47.138 144.904 4/13/2008 11.148 CTD
11462547 -46.646 145.256 4/13/2008 17.208 CTD
11462548 -46.648 145.250 4/13/2008 20.426 CTD
11462549 -46.171 145.472 4/14/2008 2.216 CTD
11462550 -45.702 145.656 4/14/2008 7.567 CTD
11462551 -45.231 145.856 4/14/2008 14.130 CTD
11462552 -44.727 146.045 4/14/2008 19.521 CTD
11462553 -44.380 146.189 4/15/2008 1.318 CTD
11462554 -44.118 146.223 4/15/2008 4.951 CTD
11462555 -44.048 146.292 4/15/2008 7.964 CTD
11462556 -43.999 146.322 4/15/2008 9.618 CTD